Terminal Aerodrome Forecast
Issued by NWS

Home | Current Version | Previous Version | Text Only | Print | Product List | Glossary On
Versions: 1 2 3 4 5 6 7 8 9 10 11 12
000
FTUS44 KTSA 020520
TAFXNA
TAF
KXNA 020520Z 0206/0306 20014KT P6SM BKN120
     FM020700 20013KT P6SM VCTS SCT035 BKN060CB
      TEMPO 0207/0209 VRB12KT -TSRA BKN040CB
     FM021100 23012G18KT P6SM SCT030 BKN060 BKN100
     FM021900 29013KT P6SM VCTS SCT030 BKN050CB PROB30 0220/0224 4SM
      TSRA BKN030CB
     FM030100 30006KT P6SM VCTS BKN120CB=

USA.gov is the U.S. government's official web portal to all federal, state and local government web resources and services.